Time;durP1;ratioP1;P1;durP2;ratioP2;P2;SDS_P1;SDS_P2;PMS_P1;PMS_P2;Temp;Humidity;BMP_temperature;BMP_pressure;BME280_temperature;BME280_humidity;BME280_pressure;Samples;Min_cycle;Max_cycle;Signal;HPM_P1;HPM_P2
2021/10/19 00:01:13;;;;;;;;;;;19.90;56.60;;;;;;5073719;28;20011;-49
2021/10/19 00:03:40;;;;;;;;;;;20.00;56.70;;;;;;5072914;28;19924;-55
2021/10/19 00:06:09;;;;;;;;;;;20.00;56.70;;;;;;5072955;28;19994;-52
2021/10/19 00:08:36;;;;;;;;;;;20.00;56.70;;;;;;5073771;28;19924;-53
2021/10/19 00:11:03;;;;;;;;;;;19.90;56.60;;;;;;5072535;28;20384;-52
2021/10/19 00:13:31;;;;;;;;;;;19.90;56.60;;;;;;5072483;28;19928;-52
2021/10/19 00:15:58;;;;;;;;;;;19.90;56.60;;;;;;5072630;28;20380;-53
2021/10/19 00:18:25;;;;;;;;;;;19.90;56.60;;;;;;5061133;28;19932;-54
2021/10/19 00:20:52;;;;;;;;;;;19.90;56.60;;;;;;5073704;28;19925;-56
2021/10/19 00:23:19;;;;;;;;;;;19.90;56.60;;;;;;5072629;28;19925;-51
2021/10/19 00:25:47;;;;;;;;;;;19.90;56.60;;;;;;5073119;28;19925;-53
2021/10/19 00:28:14;;;;;;;;;;;19.90;56.60;;;;;;5073196;28;20319;-51
2021/10/19 00:30:41;;;;;;;;;;;19.90;56.60;;;;;;5073142;28;19932;-52
2021/10/19 00:33:08;;;;;;;;;;;19.90;56.60;;;;;;5072372;28;20325;-51
2021/10/19 00:35:36;;;;;;;;;;;19.90;56.60;;;;;;5073385;28;19928;-55
2021/10/19 00:38:03;;;;;;;;;;;19.90;56.60;;;;;;5072019;28;19925;-50
2021/10/19 00:40:35;;;;;;;;;;;19.90;56.60;;;;;;5072989;28;19969;-53
2021/10/19 00:43:05;;;;;;;;;;;19.90;56.60;;;;;;5070756;28;20323;-52
2021/10/19 00:45:34;;;;;;;;;;;19.90;56.60;;;;;;5071912;28;19931;-51
2021/10/19 00:48:04;;;;;;;;;;;19.90;56.60;;;;;;5055613;28;19971;-52
2021/10/19 00:50:32;;;;;;;;;;;19.90;56.60;;;;;;5072890;28;19935;-53
2021/10/19 00:52:59;;;;;;;;;;;19.90;56.60;;;;;;5072018;28;20011;-56
2021/10/19 00:55:27;;;;;;;;;;;19.90;56.60;;;;;;5047695;28;19948;-52
2021/10/19 00:57:54;;;;;;;;;;;19.90;56.60;;;;;;5072815;28;19925;-54
2021/10/19 01:00:21;;;;;;;;;;;19.90;56.60;;;;;;5072453;28;19928;-50
2021/10/19 01:02:48;;;;;;;;;;;19.90;56.60;;;;;;5087161;28;19930;-55
2021/10/19 01:05:15;;;;;;;;;;;19.90;56.60;;;;;;5071803;28;19924;-55
2021/10/19 01:07:43;;;;;;;;;;;19.90;56.60;;;;;;5071266;28;19963;-55
2021/10/19 01:10:10;;;;;;;;;;;19.90;56.60;;;;;;5071531;28;19983;-56
2021/10/19 01:12:38;;;;;;;;;;;19.90;56.60;;;;;;5072547;28;19925;-56
2021/10/19 01:15:12;;;;;;;;;;;19.90;56.60;;;;;;5072674;28;19940;-54
2021/10/19 01:17:49;;;;;;;;;;;19.90;56.60;;;;;;5072066;28;19950;-52
2021/10/19 01:20:19;;;;;;;;;;;19.90;56.60;;;;;;5072437;28;19968;-51
2021/10/19 01:22:46;;;;;;;;;;;19.90;56.60;;;;;;5072892;28;19947;-53
2021/10/19 01:25:16;;;;;;;;;;;19.90;56.60;;;;;;5072098;28;20396;-54
2021/10/19 01:27:53;;;;;;;;;;;19.90;56.60;;;;;;5070988;28;19978;-52
2021/10/19 01:30:21;;;;;;;;;;;19.90;56.60;;;;;;5071240;28;20347;-55
2021/10/19 01:32:48;;;;;;;;;;;19.90;56.60;;;;;;5072345;28;19925;-50
2021/10/19 01:35:15;;;;;;;;;;;19.90;56.60;;;;;;5072560;28;19974;-55
2021/10/19 01:37:43;;;;;;;;;;;19.90;56.60;;;;;;5072013;28;19978;-52
2021/10/19 01:40:11;;;;;;;;;;;19.90;56.60;;;;;;5072191;28;19929;-55
2021/10/19 01:42:38;;;;;;;;;;;19.90;56.60;;;;;;5071781;28;20316;-51
2021/10/19 01:45:14;;;;;;;;;;;19.90;56.60;;;;;;5054443;28;19925;-52
2021/10/19 01:47:41;;;;;;;;;;;19.90;56.60;;;;;;5054439;28;20391;-56
2021/10/19 01:50:08;;;;;;;;;;;19.90;56.50;;;;;;5071304;28;20352;-52
2021/10/19 01:52:36;;;;;;;;;;;19.90;56.50;;;;;;5072087;28;19979;-55
2021/10/19 01:55:04;;;;;;;;;;;19.90;56.50;;;;;;5071724;28;20380;-53
2021/10/19 01:57:31;;;;;;;;;;;19.90;56.50;;;;;;5071670;28;20399;-53
2021/10/19 01:59:58;;;;;;;;;;;19.90;56.50;;;;;;5070697;28;20351;-55
2021/10/19 02:02:26;;;;;;;;;;;19.90;56.60;;;;;;5071531;28;19974;-53
2021/10/19 02:04:53;;;;;;;;;;;19.90;56.50;;;;;;5071590;28;20008;-56
2021/10/19 02:07:21;;;;;;;;;;;19.90;57.10;;;;;;5070872;28;19924;-55
2021/10/19 02:09:48;;;;;;;;;;;19.90;56.60;;;;;;5071004;28;20334;-53
2021/10/19 02:12:15;;;;;;;;;;;19.90;56.50;;;;;;5071553;28;20379;-55
2021/10/19 02:14:42;;;;;;;;;;;19.90;56.50;;;;;;5071642;28;19994;-52
2021/10/19 02:17:09;;;;;;;;;;;19.90;56.60;;;;;;5070933;28;19932;-53
2021/10/19 02:19:35;;;;;;;;;;;19.90;56.50;;;;;;5071990;28;19972;-53
2021/10/19 02:22:03;;;;;;;;;;;19.90;56.50;;;;;;5071445;28;19925;-54
2021/10/19 02:24:30;;;;;;;;;;;19.90;56.50;;;;;;5071493;28;20376;-50
2021/10/19 02:26:57;;;;;;;;;;;19.80;56.40;;;;;;5071797;28;20327;-54
2021/10/19 02:29:23;;;;;;;;;;;19.90;56.50;;;;;;5070574;28;19974;-53
2021/10/19 02:31:50;;;;;;;;;;;19.80;56.40;;;;;;5070319;28;19978;-54
2021/10/19 02:34:17;;;;;;;;;;;19.90;56.60;;;;;;5070547;28;20333;-53
2021/10/19 02:36:44;;;;;;;;;;;19.90;56.50;;;;;;5070467;28;19924;-53
2021/10/19 02:39:11;;;;;;;;;;;19.80;56.50;;;;;;5071366;28;19967;-55
2021/10/19 02:41:38;;;;;;;;;;;19.90;56.50;;;;;;5086618;28;20283;-52
2021/10/19 02:44:06;;;;;;;;;;;19.90;56.50;;;;;;5070837;28;19929;-50
2021/10/19 02:46:33;;;;;;;;;;;19.90;56.50;;;;;;5070554;28;19924;-50
2021/10/19 02:49:01;;;;;;;;;;;19.90;56.50;;;;;;5070484;28;20011;-53
2021/10/19 02:51:28;;;;;;;;;;;19.90;56.50;;;;;;5071296;28;19958;-50
2021/10/19 02:53:55;;;;;;;;;;;19.90;56.50;;;;;;5071139;28;19932;-51
2021/10/19 02:56:22;;;;;;;;;;;19.90;56.50;;;;;;5069836;28;19928;-55
2021/10/19 02:58:49;;;;;;;;;;;19.90;56.50;;;;;;5070196;28;20403;-50
2021/10/19 03:01:16;;;;;;;;;;;19.90;56.50;;;;;;5071170;28;19925;-53
2021/10/19 03:03:43;;;;;;;;;;;19.90;56.50;;;;;;5071503;28;20330;-50
2021/10/19 03:06:10;;;;;;;;;;;19.90;56.50;;;;;;5070006;28;19978;-51
2021/10/19 03:08:37;;;;;;;;;;;19.90;56.50;;;;;;5071269;28;19978;-52
2021/10/19 03:11:04;;;;;;;;;;;19.90;56.40;;;;;;5070492;28;19924;-50
2021/10/19 03:13:35;;;;;;;;;;;19.90;56.40;;;;;;5070778;28;19924;-53
2021/10/19 03:16:14;;;;;;;;;;;19.90;56.40;;;;;;5054542;28;19972;-53
2021/10/19 03:18:41;;;;;;;;;;;19.90;56.50;;;;;;5070741;28;19924;-53
2021/10/19 03:21:08;;;;;;;;;;;19.90;56.40;;;;;;5052567;28;19924;-54
2021/10/19 03:23:35;;;;;;;;;;;19.80;56.40;;;;;;5070092;28;19924;-50
2021/10/19 03:26:03;;;;;;;;;;;19.90;56.40;;;;;;5072271;28;20030;-53
2021/10/19 03:28:30;;;;;;;;;;;19.90;56.50;;;;;;5074729;28;20323;-48
2021/10/19 03:30:57;;;;;;;;;;;19.80;56.40;;;;;;5074734;28;19986;-50
2021/10/19 03:33:25;;;;;;;;;;;19.80;56.40;;;;;;5074375;28;19999;-52
2021/10/19 03:35:53;;;;;;;;;;;19.80;56.40;;;;;;5073076;28;19932;-49
2021/10/19 03:38:20;;;;;;;;;;;19.80;56.40;;;;;;5073760;28;19971;-55
2021/10/19 03:40:47;;;;;;;;;;;19.90;56.40;;;;;;5069727;28;19925;-54
2021/10/19 03:43:14;;;;;;;;;;;19.90;56.40;;;;;;5074554;28;19977;-54
2021/10/19 03:45:41;;;;;;;;;;;19.90;56.40;;;;;;5074192;28;19924;-53
2021/10/19 03:48:08;;;;;;;;;;;19.90;56.40;;;;;;5074457;28;19985;-54
2021/10/19 03:50:35;;;;;;;;;;;19.90;56.40;;;;;;5073871;28;19925;-52
2021/10/19 03:53:02;;;;;;;;;;;19.90;56.40;;;;;;5074255;28;19928;-57
2021/10/19 03:55:29;;;;;;;;;;;19.90;56.40;;;;;;5072852;28;19978;-51
2021/10/19 03:57:56;;;;;;;;;;;19.90;56.40;;;;;;5072944;28;19967;-51
2021/10/19 04:00:23;;;;;;;;;;;19.90;56.30;;;;;;5072720;28;19970;-54
2021/10/19 04:02:50;;;;;;;;;;;19.90;56.40;;;;;;5072784;28;20020;-53
2021/10/19 04:05:17;;;;;;;;;;;19.90;56.40;;;;;;5074331;28;19924;-53
2021/10/19 04:07:45;;;;;;;;;;;19.90;56.40;;;;;;5074213;28;20340;-53
2021/10/19 04:10:14;;;;;;;;;;;19.80;56.20;;;;;;5074180;28;19931;-55
2021/10/19 04:12:41;;;;;;;;;;;19.90;56.40;;;;;;5072713;28;19984;-55
2021/10/19 04:15:08;;;;;;;;;;;19.90;56.30;;;;;;5072827;28;20257;-55
2021/10/19 04:17:35;;;;;;;;;;;19.90;56.30;;;;;;5064773;28;20007;-53
2021/10/19 04:20:03;;;;;;;;;;;19.90;56.30;;;;;;5066796;28;20013;-55
2021/10/19 04:22:30;;;;;;;;;;;19.90;56.30;;;;;;5073384;28;19925;-55
2021/10/19 04:24:58;;;;;;;;;;;19.90;56.30;;;;;;5072339;28;19968;-52
2021/10/19 04:27:26;;;;;;;;;;;19.90;56.30;;;;;;5073240;28;19932;-53
2021/10/19 04:29:53;;;;;;;;;;;19.90;56.30;;;;;;5072516;28;19925;-56
2021/10/19 04:32:20;;;;;;;;;;;19.90;56.30;;;;;;5072564;28;20391;-55
2021/10/19 04:34:47;;;;;;;;;;;19.80;56.20;;;;;;5073600;28;19924;-54
2021/10/19 04:37:14;;;;;;;;;;;19.80;56.20;;;;;;5073211;28;19924;-53
2021/10/19 04:39:41;;;;;;;;;;;19.90;56.30;;;;;;5073234;28;19972;-53
2021/10/19 04:42:08;;;;;;;;;;;19.80;56.20;;;;;;5073333;28;19999;-55
2021/10/19 04:44:35;;;;;;;;;;;19.90;56.30;;;;;;5071829;28;19970;-55
2021/10/19 04:47:02;;;;;;;;;;;19.80;56.20;;;;;;5073305;28;20281;-51
2021/10/19 04:49:29;;;;;;;;;;;19.80;56.20;;;;;;5072965;28;20013;-53
2021/10/19 04:51:56;;;;;;;;;;;19.80;56.20;;;;;;5071796;28;19924;-52
2021/10/19 04:54:23;;;;;;;;;;;19.90;56.30;;;;;;5072605;28;19924;-52
2021/10/19 04:56:50;;;;;;;;;;;19.90;56.30;;;;;;5073102;28;19970;-52
2021/10/19 04:59:17;;;;;;;;;;;19.80;56.30;;;;;;5071955;28;19924;-54
2021/10/19 05:01:44;;;;;;;;;;;19.80;56.20;;;;;;5073157;28;20257;-54
2021/10/19 05:04:16;;;;;;;;;;;19.80;56.20;;;;;;5072883;28;20007;-53
2021/10/19 05:06:43;;;;;;;;;;;19.90;56.30;;;;;;5071356;28;19970;-53
2021/10/19 05:09:10;;;;;;;;;;;19.80;56.20;;;;;;5071364;28;19924;-51
2021/10/19 05:11:37;;;;;;;;;;;19.80;56.20;;;;;;5071541;28;19924;-54
2021/10/19 05:14:04;;;;;;;;;;;19.80;56.20;;;;;;5071375;28;19924;-51
2021/10/19 05:16:31;;;;;;;;;;;19.90;56.30;;;;;;5071478;28;19975;-52
2021/10/19 05:18:58;;;;;;;;;;;19.80;56.20;;;;;;5071643;28;19924;-55
2021/10/19 05:21:26;;;;;;;;;;;19.80;56.20;;;;;;5071081;28;19981;-53
2021/10/19 05:23:53;;;;;;;;;;;19.80;56.20;;;;;;5071640;28;19924;-56
2021/10/19 05:26:20;;;;;;;;;;;19.80;56.20;;;;;;5071567;28;20388;-56
2021/10/19 05:28:47;;;;;;;;;;;19.90;56.30;;;;;;5072691;28;19924;-51
2021/10/19 05:31:14;;;;;;;;;;;19.80;56.20;;;;;;5072314;28;19928;-54
2021/10/19 05:33:41;;;;;;;;;;;19.80;56.20;;;;;;5071317;28;19925;-53
2021/10/19 05:36:08;;;;;;;;;;;19.80;56.20;;;;;;5071216;28;19924;-55
2021/10/19 05:38:35;;;;;;;;;;;19.90;56.30;;;;;;5071027;28;19928;-53
2021/10/19 05:41:03;;;;;;;;;;;19.90;56.20;;;;;;5071441;28;20378;-51
2021/10/19 05:43:30;;;;;;;;;;;19.80;56.20;;;;;;5074030;28;20434;-53
2021/10/19 05:45:57;;;;;;;;;;;19.80;56.20;;;;;;5072637;28;19974;-52
2021/10/19 05:48:25;;;;;;;;;;;19.80;56.20;;;;;;5071222;28;20007;-53
2021/10/19 05:50:52;;;;;;;;;;;19.80;56.10;;;;;;5070987;28;20347;-58
2021/10/19 05:53:19;;;;;;;;;;;19.80;56.10;;;;;;5072237;28;19925;-52
2021/10/19 05:55:46;;;;;;;;;;;19.90;56.20;;;;;;5070984;28;19973;-53
2021/10/19 05:58:13;;;;;;;;;;;19.90;56.20;;;;;;5071977;28;19987;-54
2021/10/19 06:00:51;;;;;;;;;;;19.80;56.10;;;;;;5072276;28;19946;-50
2021/10/19 06:03:19;;;;;;;;;;;19.90;56.10;;;;;;5071943;28;19933;-56
2021/10/19 06:05:46;;;;;;;;;;;19.90;56.10;;;;;;5070938;28;19996;-57
2021/10/19 06:08:14;;;;;;;;;;;19.90;56.10;;;;;;5070371;28;20011;-55
2021/10/19 06:10:41;;;;;;;;;;;19.90;56.10;;;;;;5071484;28;19929;-52
2021/10/19 06:13:08;;;;;;;;;;;19.90;56.10;;;;;;5071841;28;19990;-53
2021/10/19 06:15:34;;;;;;;;;;;19.90;56.00;;;;;;5070736;28;19928;-54
2021/10/19 06:18:01;;;;;;;;;;;19.90;56.00;;;;;;5071450;28;19925;-54
2021/10/19 06:20:28;;;;;;;;;;;19.90;56.00;;;;;;5071486;28;20346;-53
2021/10/19 06:22:55;;;;;;;;;;;19.90;56.00;;;;;;5071811;28;19972;-56
2021/10/19 06:25:22;;;;;;;;;;;19.90;56.00;;;;;;5052563;28;19936;-56
2021/10/19 06:27:49;;;;;;;;;;;19.90;56.00;;;;;;5070803;28;19928;-55
2021/10/19 06:30:16;;;;;;;;;;;19.90;56.00;;;;;;5070166;28;20012;-56
2021/10/19 06:32:43;;;;;;;;;;;19.90;56.00;;;;;;5070112;28;20268;-53
2021/10/19 06:35:10;;;;;;;;;;;19.90;55.90;;;;;;5072445;28;19925;-55
2021/10/19 06:37:37;;;;;;;;;;;19.90;55.90;;;;;;5071703;28;19986;-51
2021/10/19 06:40:05;;;;;;;;;;;19.90;55.90;;;;;;5070256;28;19925;-52
2021/10/19 06:42:32;;;;;;;;;;;19.90;55.90;;;;;;5070096;28;19974;-52
2021/10/19 06:45:02;;;;;;;;;;;19.90;55.90;;;;;;5071823;28;19925;-51
2021/10/19 06:47:32;;;;;;;;;;;19.90;55.80;;;;;;5072007;28;19978;-54
2021/10/19 06:50:00;;;;;;;;;;;19.90;55.80;;;;;;5054507;28;19950;-56
2021/10/19 06:52:31;;;;;;;;;;;20.00;55.90;;;;;;5071471;28;19924;-52
2021/10/19 06:54:59;;;;;;;;;;;20.00;55.90;;;;;;5070726;28;19929;-53
2021/10/19 06:57:27;;;;;;;;;;;20.00;55.80;;;;;;5071144;28;19925;-50
2021/10/19 06:59:54;;;;;;;;;;;20.00;55.80;;;;;;5072555;28;20339;-55
2021/10/19 07:02:21;;;;;;;;;;;20.00;55.80;;;;;;5073737;28;19924;-55
2021/10/19 07:04:48;;;;;;;;;;;20.00;55.80;;;;;;5075201;28;20387;-52
2021/10/19 07:07:15;;;;;;;;;;;20.00;55.70;;;;;;5075038;28;20354;-54
2021/10/19 07:09:42;;;;;;;;;;;20.00;55.70;;;;;;5075144;28;20091;-53
2021/10/19 07:12:09;;;;;;;;;;;20.00;55.70;;;;;;5073939;28;19970;-53
2021/10/19 07:14:36;;;;;;;;;;;20.00;55.70;;;;;;5075169;28;19990;-51
2021/10/19 07:17:03;;;;;;;;;;;20.00;55.70;;;;;;5073896;28;19946;-53
2021/10/19 07:19:30;;;;;;;;;;;20.00;55.60;;;;;;5074865;28;19931;-53
2021/10/19 07:21:57;;;;;;;;;;;20.00;55.60;;;;;;5074989;28;20343;-57
2021/10/19 07:24:24;;;;;;;;;;;20.00;55.60;;;;;;5074686;28;20004;-51
2021/10/19 07:26:51;;;;;;;;;;;20.00;55.60;;;;;;5074341;28;19925;-52
2021/10/19 07:29:18;;;;;;;;;;;20.10;55.60;;;;;;5074343;28;19928;-52
2021/10/19 07:31:45;;;;;;;;;;;20.10;55.60;;;;;;5076856;28;19925;-54
2021/10/19 07:34:11;;;;;;;;;;;20.10;55.60;;;;;;5074498;28;20482;-54
2021/10/19 07:36:39;;;;;;;;;;;20.10;55.60;;;;;;5073256;28;19928;-54
2021/10/19 07:39:06;;;;;;;;;;;20.10;55.60;;;;;;5074532;28;19974;-53
2021/10/19 07:41:34;;;;;;;;;;;20.10;55.50;;;;;;5073185;28;19932;-53
2021/10/19 07:44:02;;;;;;;;;;;20.10;55.50;;;;;;5073374;28;20000;-56
2021/10/19 07:46:30;;;;;;;;;;;20.10;55.50;;;;;;5074663;28;19925;-57
2021/10/19 07:48:57;;;;;;;;;;;20.10;55.50;;;;;;5073444;28;19924;-54
2021/10/19 07:51:24;;;;;;;;;;;20.10;55.40;;;;;;5074415;28;19990;-55
2021/10/19 07:53:51;;;;;;;;;;;20.20;55.50;;;;;;5072776;28;19964;-54
2021/10/19 07:56:20;;;;;;;;;;;20.20;55.40;;;;;;5055915;28;20377;-57
2021/10/19 07:58:50;;;;;;;;;;;20.20;55.40;;;;;;5074227;28;19924;-53
2021/10/19 08:01:18;;;;;;;;;;;20.20;55.30;;;;;;5073326;28;20339;-50
2021/10/19 08:03:45;;;;;;;;;;;20.20;55.30;;;;;;5072768;28;20018;-58
2021/10/19 08:06:12;;;;;;;;;;;20.20;55.30;;;;;;5072519;28;20127;-53
2021/10/19 08:08:39;;;;;;;;;;;20.20;55.20;;;;;;5072543;28;19929;-53
2021/10/19 08:11:06;;;;;;;;;;;20.20;55.20;;;;;;5073851;28;19924;-55
2021/10/19 08:13:33;;;;;;;;;;;20.20;55.20;;;;;;5073974;28;19929;-53
2021/10/19 08:16:02;;;;;;;;;;;20.20;55.20;;;;;;5044923;28;19932;-53
2021/10/19 08:18:29;;;;;;;;;;;20.20;55.20;;;;;;5057978;28;19925;-55
2021/10/19 08:20:56;;;;;;;;;;;20.30;55.30;;;;;;5072597;28;19993;-56
2021/10/19 08:23:23;;;;;;;;;;;20.30;55.20;;;;;;5073785;28;19931;-57
2021/10/19 08:25:51;;;;;;;;;;;20.30;55.20;;;;;;5072421;28;19925;-55
2021/10/19 08:28:23;;;;;;;;;;;20.30;55.20;;;;;;5073304;28;19924;-55
2021/10/19 08:30:51;;;;;;;;;;;20.30;55.20;;;;;;5072150;28;19974;-57
2021/10/19 08:33:18;;;;;;;;;;;20.30;55.20;;;;;;5072218;28;19959;-55
2021/10/19 08:35:45;;;;;;;;;;;20.30;55.20;;;;;;5073602;28;19932;-58
2021/10/19 08:38:13;;;;;;;;;;;20.30;55.20;;;;;;5073566;28;19974;-54
2021/10/19 08:40:41;;;;;;;;;;;20.30;55.30;;;;;;5054853;28;20023;-52
2021/10/19 08:43:08;;;;;;;;;;;20.30;55.20;;;;;;5073685;28;19924;-53
2021/10/19 08:45:36;;;;;;;;;;;20.30;55.30;;;;;;5072070;28;19994;-53
2021/10/19 08:48:03;;;;;;;;;;;20.30;55.20;;;;;;5073219;28;19925;-53
2021/10/19 08:50:30;;;;;;;;;;;20.30;55.30;;;;;;5072986;28;19977;-53
2021/10/19 08:52:57;;;;;;;;;;;20.30;55.30;;;;;;5085882;28;19924;-54
2021/10/19 08:55:24;;;;;;;;;;;20.30;55.30;;;;;;5071730;28;19928;-54
2021/10/19 08:57:51;;;;;;;;;;;20.30;55.30;;;;;;5072998;28;19932;-55
2021/10/19 09:00:18;;;;;;;;;;;20.30;55.30;;;;;;5072902;28;19982;-55
2021/10/19 09:02:47;;;;;;;;;;;20.30;55.40;;;;;;5071798;28;19936;-52
2021/10/19 09:05:15;;;;;;;;;;;20.30;55.40;;;;;;5071638;28;19974;-55
2021/10/19 09:07:57;;;;;;;;;;;20.30;55.40;;;;;;5071501;28;19924;-54
2021/10/19 09:10:25;;;;;;;;;;;20.30;55.40;;;;;;5054351;28;20022;-51
2021/10/19 09:12:58;;;;;;;;;;;20.30;55.40;;;;;;5072796;28;20540;-55
2021/10/19 09:15:27;;;;;;;;;;;20.30;55.40;;;;;;5072456;28;19978;-53
2021/10/19 09:17:54;;;;;;;;;;;20.30;55.40;;;;;;5054632;28;19928;-54
2021/10/19 09:20:21;;;;;;;;;;;20.30;55.40;;;;;;5072439;28;19925;-58
2021/10/19 09:23:00;;;;;;;;;;;20.30;55.40;;;;;;5071742;28;19925;-52
2021/10/19 09:25:29;;;;;;;;;;;20.30;55.40;;;;;;5072610;28;20376;-52
2021/10/19 09:28:00;;;;;;;;;;;20.30;55.30;;;;;;5070993;28;19925;-52
2021/10/19 09:30:37;;;;;;;;;;;20.30;55.30;;;;;;5072474;28;19932;-49
2021/10/19 09:33:06;;;;;;;;;;;20.30;55.30;;;;;;5071282;28;19925;-52
2021/10/19 09:35:37;;;;;;;;;;;20.30;55.30;;;;;;5072325;28;20273;-54
2021/10/19 09:38:05;;;;;;;;;;;20.30;55.30;;;;;;5071803;28;19928;-53
2021/10/19 09:40:44;;;;;;;;;;;20.30;55.30;;;;;;5070916;28;19983;-54
2021/10/19 09:43:12;;;;;;;;;;;20.30;55.30;;;;;;5071953;28;19974;-52
2021/10/19 09:45:43;;;;;;;;;;;20.30;55.30;;;;;;5071346;28;20535;-55
2021/10/19 09:48:15;;;;;;;;;;;20.30;55.30;;;;;;5055076;28;19925;-52
2021/10/19 09:50:43;;;;;;;;;;;20.30;55.30;;;;;;5071791;28;19924;-57
2021/10/19 09:53:11;;;;;;;;;;;20.30;55.20;;;;;;5071706;28;19970;-53
2021/10/19 09:55:39;;;;;;;;;;;20.30;55.20;;;;;;5070643;28;19974;-52
2021/10/19 09:58:06;;;;;;;;;;;20.30;55.20;;;;;;5070429;28;20015;-53
2021/10/19 10:00:33;;;;;;;;;;;20.30;55.20;;;;;;5070446;28;19932;-54
2021/10/19 10:03:03;;;;;;;;;;;20.30;55.20;;;;;;5072099;28;20045;-54
2021/10/19 10:05:31;;;;;;;;;;;20.30;55.20;;;;;;5072017;28;20454;-55
2021/10/19 10:07:58;;;;;;;;;;;20.30;55.20;;;;;;5070912;28;19924;-55
2021/10/19 10:10:26;;;;;;;;;;;20.30;55.20;;;;;;5070626;28;19960;-53
2021/10/19 10:13:07;;;;;;;;;;;20.30;55.10;;;;;;5070539;28;20303;-55
2021/10/19 10:15:35;;;;;;;;;;;20.30;55.10;;;;;;5071829;28;19928;-54
2021/10/19 10:18:03;;;;;;;;;;;20.30;55.20;;;;;;5070269;28;19931;-56
2021/10/19 10:20:31;;;;;;;;;;;20.30;55.10;;;;;;5071001;28;19932;-51
2021/10/19 10:22:58;;;;;;;;;;;20.30;55.20;;;;;;5072023;28;19924;-54
2021/10/19 10:25:35;;;;;;;;;;;20.30;55.10;;;;;;5071678;28;19929;-56
2021/10/19 10:28:08;;;;;;;;;;;20.40;55.20;;;;;;5070344;28;19924;-56
2021/10/19 10:30:37;;;;;;;;;;;20.40;55.20;;;;;;5070009;28;19964;-51
2021/10/19 10:33:07;;;;;;;;;;;20.40;55.20;;;;;;5071591;28;19982;-53
2021/10/19 10:35:40;;;;;;;;;;;20.40;55.20;;;;;;5072671;28;20346;-55
2021/10/19 10:38:07;;;;;;;;;;;20.40;55.10;;;;;;5074241;28;19978;-53
2021/10/19 10:40:34;;;;;;;;;;;20.40;55.10;;;;;;5075286;28;19974;-53
2021/10/19 10:43:21;;;;;;;;;;;20.40;55.10;;;;;;5074048;28;20023;-52
2021/10/19 10:46:01;;;;;;;;;;;20.40;55.10;;;;;;5075483;28;20094;-53
2021/10/19 10:48:28;;;;;;;;;;;20.40;55.10;;;;;;5073916;28;19931;-52
2021/10/19 10:50:55;;;;;;;;;;;20.40;55.00;;;;;;5075480;28;19971;-54
2021/10/19 10:53:30;;;;;;;;;;;20.50;55.00;;;;;;5074304;28;20323;-52
2021/10/19 10:55:57;;;;;;;;;;;20.50;54.90;;;;;;5075168;28;20377;-55
2021/10/19 10:58:29;;;;;;;;;;;20.50;54.90;;;;;;5075211;28;19973;-54
2021/10/19 11:00:56;;;;;;;;;;;20.50;54.80;;;;;;5074649;28;20036;-54
2021/10/19 11:03:23;;;;;;;;;;;20.50;54.80;;;;;;5074440;28;19967;-54
2021/10/19 11:05:50;;;;;;;;;;;20.60;54.80;;;;;;5074733;28;19956;-52
2021/10/19 11:08:24;;;;;;;;;;;20.60;54.80;;;;;;5075238;28;20261;-53
2021/10/19 11:11:11;;;;;;;;;;;20.60;54.70;;;;;;5073675;28;19970;-54
2021/10/19 11:13:50;;;;;;;;;;;20.60;54.70;;;;;;5073731;28;19924;-54
2021/10/19 11:16:26;;;;;;;;;;;20.60;54.60;;;;;;5073776;28;20323;-54
2021/10/19 11:18:53;;;;;;;;;;;20.60;54.50;;;;;;5075051;28;20381;-53
2021/10/19 11:21:20;;;;;;;;;;;20.70;54.60;;;;;;5073925;28;19924;-55
2021/10/19 11:23:48;;;;;;;;;;;20.70;54.50;;;;;;5074842;28;19924;-55
2021/10/19 11:26:15;;;;;;;;;;;20.70;54.50;;;;;;5074276;28;19974;-52
2021/10/19 11:28:43;;;;;;;;;;;20.70;54.50;;;;;;5073757;28;19967;-54
2021/10/19 11:31:11;;;;;;;;;;;20.70;54.50;;;;;;5074540;28;19986;-54
2021/10/19 11:33:40;;;;;;;;;;;20.70;54.40;;;;;;5074854;28;20280;-56
2021/10/19 11:36:07;;;;;;;;;;;20.70;54.40;;;;;;5073911;28;19924;-58
2021/10/19 11:38:44;;;;;;;;;;;20.70;54.50;;;;;;5074832;28;19928;-54
2021/10/19 11:41:30;;;;;;;;;;;20.70;54.50;;;;;;5074328;28;20338;-54
2021/10/19 11:43:59;;;;;;;;;;;20.70;54.50;;;;;;5074932;28;20030;-55
2021/10/19 11:46:27;;;;;;;;;;;20.70;54.40;;;;;;5071472;28;19925;-56
2021/10/19 11:48:55;;;;;;;;;;;20.70;54.40;;;;;;5074227;28;19928;-52
2021/10/19 11:51:23;;;;;;;;;;;20.70;54.40;;;;;;5072899;28;19924;-53
2021/10/19 11:53:55;;;;;;;;;;;20.70;54.40;;;;;;5073831;28;19924;-53
2021/10/19 11:56:22;;;;;;;;;;;20.70;54.40;;;;;;5074123;28;20326;-53
2021/10/19 11:58:49;;;;;;;;;;;20.80;54.40;;;;;;5074056;28;19925;-53
2021/10/19 12:01:19;;;;;;;;;;;20.80;54.40;;;;;;5073886;28;19924;-52
2021/10/19 12:03:56;;;;;;;;;;;20.80;54.40;;;;;;5072992;28;19924;-55
2021/10/19 12:06:27;;;;;;;;;;;20.80;54.30;;;;;;5072602;28;19925;-55
2021/10/19 12:08:55;;;;;;;;;;;20.80;54.30;;;;;;5072766;28;19944;-54
2021/10/19 12:11:23;;;;;;;;;;;20.80;54.30;;;;;;5073991;28;19931;-54
2021/10/19 12:13:58;;;;;;;;;;;20.80;54.30;;;;;;5072807;28;19956;-54
2021/10/19 12:16:31;;;;;;;;;;;20.80;54.30;;;;;;5073639;28;19935;-56
2021/10/19 12:18:59;;;;;;;;;;;20.80;54.30;;;;;;5072109;28;20011;-53
2021/10/19 12:21:28;;;;;;;;;;;20.80;54.30;;;;;;5072374;28;19925;-53
2021/10/19 12:23:56;;;;;;;;;;;20.80;54.30;;;;;;5073720;28;19928;-53
2021/10/19 12:26:24;;;;;;;;;;;20.80;54.20;;;;;;5072054;28;19929;-54
2021/10/19 12:28:52;;;;;;;;;;;20.80;54.20;;;;;;5072337;28;19960;-50
2021/10/19 12:31:19;;;;;;;;;;;20.80;54.20;;;;;;5073441;28;19963;-54
2021/10/19 12:34:07;;;;;;;;;;;20.80;54.10;;;;;;5072351;28;19931;-53
2021/10/19 12:36:36;;;;;;;;;;;20.80;54.10;;;;;;5073158;28;19928;-55
2021/10/19 12:39:07;;;;;;;;;;;20.90;54.20;;;;;;5072075;28;19924;-52
2021/10/19 12:41:34;;;;;;;;;;;20.90;54.20;;;;;;5073144;28;20380;-52
2021/10/19 12:44:02;;;;;;;;;;;20.90;54.20;;;;;;5071933;28;20395;-55
2021/10/19 12:46:29;;;;;;;;;;;20.90;54.10;;;;;;5073170;28;19925;-53
2021/10/19 12:49:02;;;;;;;;;;;20.90;54.10;;;;;;5072293;28;20449;-54
2021/10/19 12:51:29;;;;;;;;;;;20.90;54.10;;;;;;5072257;28;19986;-55
2021/10/19 12:53:56;;;;;;;;;;;21.00;54.20;;;;;;5073275;28;20331;-52
2021/10/19 12:56:25;;;;;;;;;;;21.00;54.10;;;;;;5071658;28;19924;-53
2021/10/19 12:58:53;;;;;;;;;;;21.00;54.10;;;;;;5071502;28;19977;-53
2021/10/19 13:01:21;;;;;;;;;;;21.00;54.00;;;;;;5072834;28;19954;-54
2021/10/19 13:03:50;;;;;;;;;;;21.00;54.00;;;;;;5071018;28;20211;-54
2021/10/19 13:06:18;;;;;;;;;;;21.00;54.00;;;;;;5072526;28;20029;-54
2021/10/19 13:08:46;;;;;;;;;;;21.00;54.00;;;;;;5072734;28;19924;-55
2021/10/19 13:11:13;;;;;;;;;;;21.00;54.00;;;;;;5073671;28;19925;-51
2021/10/19 13:13:41;;;;;;;;;;;21.00;54.00;;;;;;5072571;28;19924;-53
2021/10/19 13:16:08;;;;;;;;;;;21.00;54.00;;;;;;5072537;28;19924;-49
2021/10/19 13:18:38;;;;;;;;;;;21.00;54.00;;;;;;5072133;28;19954;-54
2021/10/19 13:21:07;;;;;;;;;;;21.00;54.00;;;;;;5070872;28;19928;-58
2021/10/19 13:23:34;;;;;;;;;;;21.00;54.00;;;;;;5072207;28;19928;-51
2021/10/19 13:26:02;;;;;;;;;;;21.00;54.00;;;;;;5071347;28;19986;-56
2021/10/19 13:28:29;;;;;;;;;;;21.10;54.00;;;;;;5072223;28;20420;-54
2021/10/19 13:30:58;;;;;;;;;;;21.00;53.90;;;;;;5072468;28;19924;-54
2021/10/19 13:33:25;;;;;;;;;;;21.00;54.00;;;;;;5071425;28;19924;-50
2021/10/19 13:35:52;;;;;;;;;;;21.10;54.10;;;;;;5072212;28;19950;-55
2021/10/19 13:38:19;;;;;;;;;;;21.00;54.00;;;;;;5072043;28;19960;-52
2021/10/19 13:40:47;;;;;;;;;;;21.00;54.20;;;;;;5070880;28;20445;-53
2021/10/19 13:43:15;;;;;;;;;;;21.10;54.20;;;;;;5072027;28;19924;-56
2021/10/19 13:45:42;;;;;;;;;;;21.10;54.30;;;;;;5054521;28;19925;-55
2021/10/19 13:48:09;;;;;;;;;;;21.10;54.40;;;;;;5072461;28;20372;-54
2021/10/19 13:50:37;;;;;;;;;;;21.10;54.40;;;;;;5069668;28;20261;-53
2021/10/19 13:53:04;;;;;;;;;;;21.10;54.40;;;;;;5070311;28;20068;-53
2021/10/19 13:55:31;;;;;;;;;;;21.10;54.50;;;;;;5069047;28;19928;-52
2021/10/19 13:57:59;;;;;;;;;;;21.10;54.50;;;;;;5070836;28;19974;-53
2021/10/19 14:00:26;;;;;;;;;;;21.00;54.50;;;;;;5071527;28;20370;-53
2021/10/19 14:02:53;;;;;;;;;;;21.00;54.40;;;;;;5085153;28;19959;-55
2021/10/19 14:05:21;;;;;;;;;;;21.00;54.40;;;;;;5068732;28;19939;-51
2021/10/19 14:07:48;;;;;;;;;;;21.00;54.50;;;;;;5084223;28;19925;-57
2021/10/19 14:10:15;;;;;;;;;;;21.00;54.50;;;;;;5071314;28;20296;-55
2021/10/19 14:12:43;;;;;;;;;;;21.00;54.50;;;;;;5075200;28;19924;-54
2021/10/19 14:15:10;;;;;;;;;;;21.00;54.60;;;;;;5069676;28;19991;-54
2021/10/19 14:17:37;;;;;;;;;;;21.00;54.60;;;;;;5070878;28;20338;-51
2021/10/19 14:20:05;;;;;;;;;;;21.00;54.60;;;;;;5071594;28;19950;-51
2021/10/19 14:22:32;;;;;;;;;;;21.00;54.60;;;;;;5071382;28;19929;-56